createdAt,value
2022-08-28T00:01:25.861Z,33.17
2022-08-28T00:03:54.893Z,33.05
2022-08-28T00:06:23.944Z,32.90
2022-08-28T00:08:52.510Z,32.84
2022-08-28T00:11:23.707Z,32.74
2022-08-28T00:13:52.600Z,32.58
2022-08-28T00:16:21.481Z,32.70
2022-08-28T00:18:51.489Z,32.90
2022-08-28T00:21:20.293Z,32.91
2022-08-28T00:23:48.859Z,33.02
2022-08-28T00:26:37.699Z,32.90
2022-08-28T00:29:07.463Z,33.00
2022-08-28T00:31:39.522Z,32.96
2022-08-28T00:34:09.258Z,32.89
2022-08-28T00:36:38.996Z,32.81
2022-08-28T00:39:08.947Z,32.85
2022-08-28T00:41:41.222Z,32.81
2022-08-28T00:44:15.000Z,32.84
2022-08-28T00:46:45.908Z,32.80
2022-08-28T00:49:16.995Z,32.76
2022-08-28T00:52:04.001Z,32.70
2022-08-28T00:54:34.163Z,32.75
2022-08-28T00:57:05.389Z,32.76
2022-08-28T00:59:36.369Z,32.70
2022-08-28T01:02:08.242Z,32.79
2022-08-28T01:04:37.590Z,32.88
2022-08-28T01:07:09.775Z,32.86
2022-08-28T01:09:42.933Z,32.84
2022-08-28T01:12:16.287Z,32.77
2022-08-28T01:14:48.134Z,32.81
2022-08-28T01:17:18.981Z,32.83
2022-08-28T01:19:55.568Z,32.69
2022-08-28T01:22:31.956Z,32.81
2022-08-28T01:25:04.731Z,32.79
2022-08-28T01:27:33.651Z,32.75
2022-08-28T01:30:02.251Z,32.68
2022-08-28T01:32:35.317Z,32.74
2022-08-28T01:35:07.275Z,32.75
2022-08-28T01:37:35.794Z,32.80
2022-08-28T01:40:07.178Z,32.77
2022-08-28T01:42:38.650Z,32.76
2022-08-28T01:45:11.375Z,32.81
2022-08-28T01:47:39.983Z,32.97
2022-08-28T01:50:10.911Z,32.88
2022-08-28T01:52:41.524Z,32.25
2022-08-28T01:55:13.080Z,31.58
2022-08-28T01:58:01.690Z,30.64
2022-08-28T02:00:30.764Z,29.67
2022-08-28T02:03:00.863Z,29.26
2022-08-28T02:05:33.079Z,29.45
2022-08-28T02:08:03.912Z,30.02
2022-08-28T02:10:36.113Z,30.41
2022-08-28T02:13:06.929Z,30.65
2022-08-28T02:15:37.908Z,30.81
2022-08-28T02:18:07.545Z,30.97
2022-08-28T02:20:36.472Z,31.12
2022-08-28T02:23:06.295Z,30.98
2022-08-28T02:25:37.237Z,31.06
2022-08-28T02:28:05.781Z,31.15
2022-08-28T02:30:34.602Z,31.10
2022-08-28T02:33:03.810Z,31.18
2022-08-28T02:35:32.515Z,31.03
2022-08-28T02:38:01.563Z,31.00
2022-08-28T02:40:31.790Z,31.05
2022-08-28T02:43:01.793Z,31.05
2022-08-28T02:45:30.320Z,30.97
2022-08-28T02:47:58.921Z,30.95
2022-08-28T02:50:27.426Z,30.95
2022-08-28T02:52:55.903Z,30.92
2022-08-28T02:55:25.618Z,30.86
2022-08-28T02:57:55.078Z,30.82
2022-08-28T03:00:27.688Z,30.85
2022-08-28T03:02:56.534Z,30.70
2022-08-28T03:05:26.896Z,30.68
2022-08-28T03:07:56.385Z,30.65
2022-08-28T03:10:25.196Z,30.59
2022-08-28T03:12:53.868Z,30.56
2022-08-28T03:15:22.806Z,30.47
2022-08-28T03:17:53.079Z,30.45
2022-08-28T03:20:21.886Z,30.41
2022-08-28T03:23:07.867Z,30.40
2022-08-28T03:25:36.639Z,30.37
2022-08-28T03:28:05.280Z,30.30
2022-08-28T03:30:33.897Z,30.22
2022-08-28T03:33:03.991Z,30.16
2022-08-28T03:35:32.567Z,30.17
2022-08-28T03:38:02.081Z,30.05
2022-08-28T03:40:32.320Z,30.07
2022-08-28T03:43:00.917Z,30.11
2022-08-28T03:45:29.435Z,29.94
2022-08-28T03:47:58.282Z,30.05
2022-08-28T03:50:29.128Z,30.05
2022-08-28T03:52:59.368Z,30.04
2022-08-28T03:55:28.907Z,30.01
2022-08-28T03:57:57.744Z,30.03
2022-08-28T04:00:26.555Z,30.02
2022-08-28T04:02:55.507Z,29.97
2022-08-28T04:05:25.014Z,29.91
2022-08-28T04:07:55.032Z,29.78
2022-08-28T04:10:23.796Z,29.85
2022-08-28T04:12:52.191Z,29.85
2022-08-28T04:15:21.322Z,29.91
2022-08-28T04:17:50.055Z,29.98
2022-08-28T04:20:21.073Z,29.97
2022-08-28T04:22:49.684Z,30.00
2022-08-28T04:25:26.025Z,30.12
2022-08-28T04:27:54.704Z,30.04
2022-08-28T04:30:23.307Z,30.06
2022-08-28T04:32:52.020Z,30.03
2022-08-28T04:35:20.858Z,30.09
2022-08-28T04:37:50.124Z,30.13
2022-08-28T04:40:19.334Z,30.17
2022-08-28T04:42:49.342Z,30.23
2022-08-28T04:45:18.064Z,30.31
2022-08-28T04:47:46.752Z,30.29
2022-08-28T04:50:16.005Z,29.88
2022-08-28T04:52:44.499Z,29.93
2022-08-28T04:55:14.625Z,30.09
2022-08-28T04:57:46.858Z,30.11
2022-08-28T05:00:17.554Z,30.24
2022-08-28T05:02:46.088Z,30.39
2022-08-28T05:05:14.800Z,30.13
2022-08-28T05:07:44.948Z,30.00
2022-08-28T05:10:13.840Z,29.84
2022-08-28T05:12:42.536Z,29.95
2022-08-28T05:15:12.282Z,30.16
2022-08-28T05:17:42.416Z,30.33
2022-08-28T05:20:11.852Z,30.43
2022-08-28T05:22:40.568Z,30.55
2022-08-28T05:25:09.728Z,30.61
2022-08-28T05:27:40.317Z,30.66
2022-08-28T05:30:10.607Z,30.62
2022-08-28T05:32:39.139Z,30.38
2022-08-28T05:35:09.289Z,30.44
2022-08-28T05:37:37.929Z,30.40
2022-08-28T05:40:07.466Z,30.69
2022-08-28T05:42:39.003Z,30.84
2022-08-28T05:45:09.523Z,30.32
2022-08-28T05:47:38.392Z,30.42
2022-08-28T05:50:09.876Z,30.53
2022-08-28T05:52:38.515Z,30.68
2022-08-28T05:55:08.036Z,30.84
2022-08-28T05:57:36.653Z,30.95
2022-08-28T06:00:06.735Z,31.16
2022-08-28T06:02:35.179Z,31.15
2022-08-28T06:05:03.647Z,31.15
2022-08-28T06:07:33.990Z,31.42
2022-08-28T06:10:02.672Z,31.46
2022-08-28T06:12:31.352Z,31.60
2022-08-28T06:15:00.496Z,31.41
2022-08-28T06:17:29.069Z,31.63
2022-08-28T06:19:57.477Z,31.71
2022-08-28T06:22:26.196Z,31.60
2022-08-28T06:24:56.105Z,31.83
2022-08-28T06:27:24.996Z,32.02
2022-08-28T06:29:53.740Z,32.20
2022-08-28T06:32:22.519Z,32.21
2022-08-28T06:34:51.052Z,32.17
2022-08-28T06:37:19.709Z,32.32
2022-08-28T06:39:48.155Z,32.29
2022-08-28T06:42:17.969Z,32.46
2022-08-28T06:44:46.796Z,32.59
2022-08-28T06:47:16.073Z,32.56
2022-08-28T06:49:44.563Z,32.78
2022-08-28T06:52:13.211Z,32.93
2022-08-28T06:54:41.589Z,33.00
2022-08-28T06:57:26.570Z,32.74
2022-08-28T06:59:56.916Z,32.35
2022-08-28T07:02:28.327Z,32.53
2022-08-28T07:04:56.976Z,32.55
2022-08-28T07:07:31.503Z,31.38
2022-08-28T07:10:00.653Z,30.94
2022-08-28T07:12:30.803Z,30.60
2022-08-28T07:14:59.638Z,30.91
2022-08-28T07:17:28.782Z,31.56
2022-08-28T07:19:57.207Z,31.73
2022-08-28T07:22:26.561Z,31.61
2022-08-28T07:24:55.347Z,31.63
2022-08-28T07:27:25.140Z,31.68
2022-08-28T07:29:55.148Z,31.89
2022-08-28T07:32:23.787Z,32.01
2022-08-28T07:34:52.795Z,31.93
2022-08-28T07:37:21.218Z,32.39
2022-08-28T07:39:50.216Z,32.75
2022-08-28T07:42:35.518Z,32.96
2022-08-28T07:45:06.935Z,33.18
2022-08-28T07:47:35.607Z,32.76
2022-08-28T07:50:04.250Z,31.36
2022-08-28T07:52:33.276Z,31.50
2022-08-28T07:55:01.676Z,31.99
2022-08-28T07:57:31.419Z,32.38
2022-08-28T08:00:00.538Z,32.78
2022-08-28T08:02:31.100Z,32.51
2022-08-28T08:04:59.602Z,32.91
2022-08-28T08:07:28.805Z,32.95
2022-08-28T08:09:57.769Z,32.74
2022-08-28T08:12:26.480Z,33.11
2022-08-28T08:14:58.124Z,32.33
2022-08-28T08:17:26.529Z,31.49
2022-08-28T08:19:56.853Z,31.99
2022-08-28T08:22:25.653Z,31.44
2022-08-28T08:24:55.349Z,31.99
2022-08-28T08:27:24.084Z,32.58
2022-08-28T08:29:52.866Z,32.93
2022-08-28T08:32:21.337Z,33.39
2022-08-28T08:34:49.777Z,33.21
2022-08-28T08:37:19.711Z,33.56
2022-08-28T08:39:48.332Z,33.96
2022-08-28T08:42:24.270Z,34.03
2022-08-28T08:44:54.883Z,33.75
2022-08-28T08:47:31.698Z,33.25
2022-08-28T08:50:02.672Z,32.49
2022-08-28T08:52:41.546Z,32.36
2022-08-28T08:55:23.157Z,32.64
2022-08-28T08:57:58.320Z,33.15
2022-08-28T09:00:27.188Z,33.15
2022-08-28T09:03:01.463Z,33.08
2022-08-28T09:05:42.593Z,32.45
2022-08-28T09:08:24.979Z,32.50
2022-08-28T09:11:02.228Z,32.58
2022-08-28T09:13:43.911Z,33.33
2022-08-28T09:16:22.217Z,33.86
2022-08-28T09:18:52.340Z,32.95
2022-08-28T09:21:29.441Z,33.16
2022-08-28T09:24:05.703Z,33.90
2022-08-28T09:26:35.019Z,33.59
2022-08-28T09:29:06.898Z,34.22
2022-08-28T09:31:39.165Z,33.65
2022-08-28T09:34:26.293Z,32.16
2022-08-28T09:36:56.568Z,31.81
2022-08-28T09:39:32.216Z,32.39
2022-08-28T09:42:33.489Z,32.05
2022-08-28T09:45:08.968Z,31.86
2022-08-28T09:47:46.888Z,32.15
2022-08-28T09:50:21.418Z,32.80
2022-08-28T09:52:51.532Z,33.22
2022-08-28T09:55:31.704Z,33.67
2022-08-28T09:58:01.171Z,33.75
2022-08-28T10:00:35.073Z,33.55
2022-08-28T10:03:14.992Z,33.22
2022-08-28T10:05:54.919Z,33.65
2022-08-28T10:08:32.045Z,33.31
2022-08-28T10:11:15.189Z,33.22
2022-08-28T10:13:51.538Z,33.96
2022-08-28T10:16:33.575Z,34.53
2022-08-28T10:19:11.853Z,34.52
2022-08-28T10:21:47.647Z,34.97
2022-08-28T10:24:42.211Z,34.33
2022-08-28T10:27:27.163Z,34.93
2022-08-28T10:30:12.485Z,35.50
2022-08-28T10:33:04.019Z,35.48
2022-08-28T10:35:45.113Z,35.60
2022-08-28T10:38:17.566Z,36.03
2022-08-28T10:40:56.921Z,34.74
2022-08-28T10:43:33.789Z,34.89
2022-08-28T10:46:06.695Z,35.46
2022-08-28T10:48:41.349Z,35.96
2022-08-28T10:51:17.544Z,36.26
2022-08-28T10:53:52.005Z,36.03
2022-08-28T10:56:24.920Z,34.65
2022-08-28T10:58:59.988Z,35.00
2022-08-28T11:01:32.795Z,35.00
2022-08-28T11:04:03.471Z,34.60
2022-08-28T11:06:37.382Z,34.66
2022-08-28T11:09:23.748Z,35.38
2022-08-28T11:12:01.101Z,35.79
2022-08-28T11:14:35.631Z,36.26
2022-08-28T11:17:38.746Z,36.02
2022-08-28T11:20:16.608Z,35.47
2022-08-28T11:22:50.651Z,35.50
2022-08-28T11:25:26.548Z,35.08
2022-08-28T11:28:17.694Z,35.23
2022-08-28T11:30:49.504Z,35.23
2022-08-28T11:33:40.082Z,35.92
2022-08-28T11:36:12.599Z,36.11
2022-08-28T11:39:21.333Z,37.18
2022-08-28T11:42:32.386Z,36.71
2022-08-28T11:45:01.903Z,37.37
2022-08-28T11:47:57.742Z,36.55
2022-08-28T11:50:32.066Z,36.03
2022-08-28T11:53:45.413Z,35.70
2022-08-28T11:56:42.196Z,35.57
2022-08-28T11:59:38.493Z,36.13
2022-08-28T12:02:44.310Z,36.03
2022-08-28T12:05:42.340Z,36.95
2022-08-28T12:08:35.035Z,37.41
2022-08-28T12:11:03.949Z,36.58
2022-08-28T12:13:52.664Z,37.47
2022-08-28T12:16:22.445Z,38.02
2022-08-28T12:19:01.343Z,37.99
2022-08-28T12:21:36.544Z,37.70
2022-08-28T12:24:23.173Z,38.25
2022-08-28T12:26:57.009Z,38.54
2022-08-28T12:29:32.599Z,39.17
2022-08-28T12:32:30.240Z,40.23
2022-08-28T12:35:16.775Z,41.01
2022-08-28T12:38:00.057Z,40.95
2022-08-28T12:40:33.346Z,40.44
2022-08-28T12:43:05.051Z,40.68
2022-08-28T12:45:39.487Z,41.35
2022-08-28T12:48:18.325Z,41.53
2022-08-28T12:50:47.537Z,40.09
2022-08-28T12:53:19.566Z,40.09
2022-08-28T12:55:48.468Z,40.42
2022-08-28T12:58:30.144Z,40.80
2022-08-28T13:01:02.594Z,41.33
2022-08-28T13:03:32.334Z,41.83
2022-08-28T13:06:05.670Z,42.28
2022-08-28T13:08:37.964Z,41.98
2022-08-28T13:11:07.663Z,41.72
2022-08-28T13:13:40.075Z,41.86
2022-08-28T13:16:10.471Z,41.73
2022-08-28T13:19:11.473Z,41.32
2022-08-28T13:21:55.476Z,41.38
2022-08-28T13:24:38.622Z,40.97
2022-08-28T13:27:17.334Z,41.18
2022-08-28T13:30:01.443Z,41.38
2022-08-28T13:32:33.254Z,40.99
2022-08-28T13:35:32.178Z,41.32
2022-08-28T13:38:03.430Z,39.43
2022-08-28T13:40:57.567Z,39.49
2022-08-28T13:43:30.156Z,39.15
2022-08-28T13:45:58.881Z,39.58
2022-08-28T13:48:28.779Z,39.59
2022-08-28T13:51:03.552Z,38.93
2022-08-28T13:53:34.170Z,39.37
2022-08-28T13:56:05.023Z,39.46
2022-08-28T13:58:33.886Z,39.43
2022-08-28T14:01:03.238Z,39.57
2022-08-28T14:03:36.424Z,39.55
2022-08-28T14:06:09.235Z,39.78
2022-08-28T14:08:37.735Z,39.80
2022-08-28T14:11:08.337Z,39.69
2022-08-28T14:13:47.200Z,39.76
2022-08-28T14:16:25.667Z,39.35
2022-08-28T14:18:54.870Z,39.22
2022-08-28T14:21:24.479Z,39.39
2022-08-28T14:23:53.424Z,39.65
2022-08-28T14:26:23.372Z,39.68
2022-08-28T14:28:52.054Z,39.22
2022-08-28T14:31:20.693Z,39.03
2022-08-28T14:33:55.164Z,39.43
2022-08-28T14:36:25.567Z,38.93
2022-08-28T14:38:55.860Z,38.22
2022-08-28T14:41:27.144Z,38.21
2022-08-28T14:43:56.787Z,38.41
2022-08-28T14:46:28.544Z,38.58
2022-08-28T14:48:57.955Z,38.47
2022-08-28T14:51:27.368Z,37.93
2022-08-28T14:53:55.836Z,38.35
2022-08-28T14:56:25.616Z,38.65
2022-08-28T14:58:55.071Z,38.68
2022-08-28T15:01:25.007Z,38.74
2022-08-28T15:04:10.509Z,38.53
2022-08-28T15:06:39.503Z,37.49
2022-08-28T15:09:08.211Z,37.72
2022-08-28T15:11:38.553Z,38.03
2022-08-28T15:14:08.765Z,38.08
2022-08-28T15:16:41.083Z,38.29
2022-08-28T15:19:12.323Z,38.39
2022-08-28T15:21:44.741Z,37.91
2022-08-28T15:24:15.629Z,37.92
2022-08-28T15:26:45.821Z,37.73
2022-08-28T15:29:14.660Z,37.86
2022-08-28T15:31:45.838Z,38.13
2022-08-28T15:34:17.961Z,38.28
2022-08-28T15:36:54.829Z,38.45
2022-08-28T15:39:42.830Z,38.54
2022-08-28T15:42:13.020Z,38.66
2022-08-28T15:44:41.997Z,38.15
2022-08-28T15:47:10.477Z,38.16
2022-08-28T15:49:44.798Z,38.34
2022-08-28T15:52:18.269Z,38.49
2022-08-28T15:54:46.970Z,38.16
2022-08-28T15:57:17.292Z,38.45
2022-08-28T15:59:48.698Z,38.50
2022-08-28T16:02:18.185Z,38.61
2022-08-28T16:04:46.723Z,38.67
2022-08-28T16:07:15.237Z,38.72
2022-08-28T16:09:43.879Z,38.74
2022-08-28T16:12:12.270Z,38.42
2022-08-28T16:14:42.392Z,38.63
2022-08-28T16:17:11.562Z,38.60
2022-08-28T16:19:40.836Z,38.58
2022-08-28T16:22:10.685Z,38.48
2022-08-28T16:24:39.629Z,38.47
2022-08-28T16:27:14.605Z,38.40
2022-08-28T16:29:45.571Z,38.38
2022-08-28T16:32:14.438Z,38.44
2022-08-28T16:35:56.903Z,38.38
2022-08-28T16:37:39.635Z,38.40
2022-08-28T16:40:10.167Z,38.39
2022-08-28T16:42:38.821Z,38.28
2022-08-28T16:45:09.681Z,38.18
2022-08-28T16:47:40.085Z,38.18
2022-08-28T16:50:11.850Z,38.16
2022-08-28T16:52:40.626Z,38.12
2022-08-28T16:55:11.876Z,38.13
2022-08-28T16:57:40.476Z,38.09
2022-08-28T17:00:13.510Z,38.10
2022-08-28T17:02:42.270Z,38.04
2022-08-28T17:05:13.115Z,38.00
2022-08-28T17:07:41.666Z,37.94
2022-08-28T17:10:12.135Z,37.90
2022-08-28T17:12:41.389Z,37.77
2022-08-28T17:15:12.543Z,37.75
2022-08-28T17:17:41.288Z,37.69
2022-08-28T17:20:32.579Z,37.63
2022-08-28T17:23:00.341Z,37.54
2022-08-28T17:25:29.362Z,37.37
2022-08-28T17:27:57.922Z,37.32
2022-08-28T17:30:28.467Z,37.23
2022-08-28T17:32:57.153Z,37.13
2022-08-28T17:35:25.686Z,37.05
2022-08-28T17:37:55.580Z,36.97
2022-08-28T17:40:26.164Z,36.83
2022-08-28T17:42:54.709Z,36.80
2022-08-28T17:45:23.296Z,36.76
2022-08-28T17:47:53.752Z,36.74
2022-08-28T17:50:22.449Z,36.64
2022-08-28T17:52:51.577Z,36.59
2022-08-28T17:55:21.074Z,36.49
2022-08-28T17:57:49.684Z,36.35
2022-08-28T18:00:18.863Z,36.34
2022-08-28T18:02:51.741Z,36.29
2022-08-28T18:05:22.369Z,36.16
2022-08-28T18:07:51.650Z,36.17
2022-08-28T18:10:21.672Z,36.04
2022-08-28T18:12:50.235Z,35.91
2022-08-28T18:15:18.999Z,35.81
2022-08-28T18:17:50.466Z,35.81
2022-08-28T18:20:21.754Z,35.54
2022-08-28T18:22:50.541Z,35.60
2022-08-28T18:25:38.648Z,35.57
2022-08-28T18:28:08.237Z,35.67
2022-08-28T18:30:37.326Z,35.58
2022-08-28T18:33:15.611Z,35.49
2022-08-28T18:35:49.208Z,35.43
2022-08-28T18:38:19.124Z,35.17
2022-08-28T18:40:47.999Z,35.23
2022-08-28T18:43:17.277Z,35.27
2022-08-28T18:45:45.968Z,35.17
2022-08-28T18:48:15.072Z,35.10
2022-08-28T18:50:46.582Z,34.89
2022-08-28T18:53:15.507Z,34.95
2022-08-28T18:55:44.118Z,35.08
2022-08-28T18:58:15.420Z,35.19
2022-08-28T19:00:44.865Z,35.18
2022-08-28T19:03:14.583Z,35.01
2022-08-28T19:05:43.160Z,35.17
2022-08-28T19:08:14.518Z,35.23
2022-08-28T19:10:43.536Z,34.54
2022-08-28T19:13:11.994Z,34.78
2022-08-28T19:15:40.870Z,34.82
2022-08-28T19:18:09.991Z,34.80
2022-08-28T19:20:38.359Z,34.87
2022-08-28T19:23:07.089Z,34.86
2022-08-28T19:25:37.049Z,34.64
2022-08-28T19:28:05.530Z,34.77
2022-08-28T19:30:36.215Z,34.45
2022-08-28T19:33:06.394Z,34.48
2022-08-28T19:35:35.165Z,34.16
2022-08-28T19:38:03.659Z,33.82
2022-08-28T19:40:33.664Z,34.16
2022-08-28T19:43:05.427Z,34.21
2022-08-28T19:45:34.413Z,34.46
2022-08-28T19:48:03.394Z,34.58
2022-08-28T19:50:32.363Z,34.49
2022-08-28T19:53:00.860Z,34.31
2022-08-28T19:55:29.828Z,33.74
2022-08-28T19:57:58.870Z,33.91
2022-08-28T20:00:29.629Z,33.69
2022-08-28T20:02:58.226Z,33.66
2022-08-28T20:05:27.127Z,33.95
2022-08-28T20:07:55.623Z,34.14
2022-08-28T20:10:24.089Z,34.15
2022-08-28T20:12:53.504Z,33.71
2022-08-28T20:15:22.190Z,33.21
2022-08-28T20:17:52.435Z,32.88
2022-08-28T20:20:26.744Z,32.82
2022-08-28T20:22:57.788Z,33.13
2022-08-28T20:25:26.567Z,33.58
2022-08-28T20:27:57.340Z,33.69
2022-08-28T20:30:29.803Z,33.99
2022-08-28T20:33:01.625Z,34.22
2022-08-28T20:35:30.945Z,34.46
2022-08-28T20:37:59.435Z,34.56
2022-08-28T20:40:28.408Z,34.56
2022-08-28T20:42:57.362Z,34.56
2022-08-28T20:45:26.016Z,34.56
2022-08-28T20:47:54.463Z,34.56
2022-08-28T20:50:24.591Z,34.52
2022-08-28T20:52:53.030Z,34.52
2022-08-28T20:55:21.521Z,34.52
2022-08-28T20:57:50.208Z,34.25
2022-08-28T21:00:18.639Z,34.27
2022-08-28T21:02:47.017Z,34.20
2022-08-28T21:05:15.734Z,34.12
2022-08-28T21:07:45.575Z,34.02
2022-08-28T21:10:14.075Z,33.96
2022-08-28T21:12:42.734Z,33.34
2022-08-28T21:15:13.631Z,32.87
2022-08-28T21:17:42.700Z,32.62
2022-08-28T21:20:14.801Z,32.43
2022-08-28T21:22:43.549Z,32.15
2022-08-28T21:25:15.109Z,31.73
2022-08-28T21:27:44.372Z,31.89
2022-08-28T21:30:15.823Z,31.92
2022-08-28T21:32:44.957Z,32.08
2022-08-28T21:35:14.504Z,32.13
2022-08-28T21:37:43.772Z,32.12
2022-08-28T21:40:15.301Z,32.07
2022-08-28T21:42:44.252Z,31.99
2022-08-28T21:45:13.801Z,32.04
2022-08-28T21:47:43.263Z,31.67
2022-08-28T21:50:13.067Z,31.44
2022-08-28T21:52:42.021Z,31.54
2022-08-28T21:55:15.948Z,31.28
2022-08-28T21:57:44.668Z,31.34
2022-08-28T22:00:17.572Z,31.26
2022-08-28T22:02:48.146Z,31.31
2022-08-28T22:05:17.438Z,31.14
2022-08-28T22:07:46.015Z,31.18
2022-08-28T22:10:16.574Z,30.18
2022-08-28T22:12:45.333Z,30.46
2022-08-28T22:15:13.948Z,30.59
2022-08-28T22:17:42.372Z,30.63
2022-08-28T22:20:11.924Z,30.54
2022-08-28T22:22:58.048Z,30.24
2022-08-28T22:25:28.164Z,30.46
2022-08-28T22:27:56.612Z,30.49
2022-08-28T22:30:25.748Z,30.61
2022-08-28T22:32:54.940Z,30.68
2022-08-28T22:35:23.653Z,30.77
2022-08-28T22:37:52.121Z,30.80
2022-08-28T22:40:21.665Z,30.69
2022-08-28T22:42:51.830Z,30.31
2022-08-28T22:45:21.335Z,29.64
2022-08-28T22:47:50.687Z,27.70
2022-08-28T22:50:19.533Z,26.73
2022-08-28T22:52:48.941Z,26.09
2022-08-28T22:55:19.571Z,24.92
2022-08-28T22:57:48.766Z,24.23
2022-08-28T23:00:21.550Z,23.77
2022-08-28T23:02:51.978Z,23.89
2022-08-28T23:05:20.960Z,24.76
2022-08-28T23:07:50.373Z,25.07
2022-08-28T23:10:25.326Z,25.47
2022-08-28T23:13:05.266Z,25.77
2022-08-28T23:15:35.840Z,25.73
2022-08-28T23:18:05.822Z,26.04
2022-08-28T23:20:34.705Z,26.37
2022-08-28T23:23:03.719Z,26.66
2022-08-28T23:25:32.383Z,26.84
2022-08-28T23:28:05.847Z,26.13
2022-08-28T23:30:36.223Z,25.44
2022-08-28T23:33:05.059Z,25.08
2022-08-28T23:35:38.032Z,24.53
2022-08-28T23:38:07.054Z,24.52
2022-08-28T23:40:37.372Z,24.57
2022-08-28T23:43:06.159Z,24.61
2022-08-28T23:45:39.869Z,24.68
2022-08-28T23:48:08.846Z,25.25
2022-08-28T23:50:37.687Z,25.51
2022-08-28T23:53:06.305Z,25.62
2022-08-28T23:55:36.597Z,25.65
2022-08-28T23:58:05.443Z,26.02
